createdAt,value
2019-04-30T00:01:24.783Z,95864.00
2019-04-30T00:04:15.869Z,95855.00
2019-04-30T00:06:47.740Z,95850.00
2019-04-30T00:09:22.872Z,95852.00
2019-04-30T00:11:57.994Z,95849.00
2019-04-30T00:14:37.279Z,95847.00
2019-04-30T00:17:01.757Z,95852.00
2019-04-30T00:19:33.547Z,95856.00
2019-04-30T00:22:05.701Z,95843.00
2019-04-30T00:24:39.924Z,95844.00
2019-04-30T00:27:11.906Z,95840.00
2019-04-30T00:29:45.670Z,95832.00
2019-04-30T00:32:17.539Z,95840.00
2019-04-30T00:34:49.608Z,95846.00
2019-04-30T00:37:22.359Z,95832.00
2019-04-30T00:39:55.548Z,95835.00
2019-04-30T00:42:28.869Z,95832.00
2019-04-30T00:45:06.587Z,95819.00
2019-04-30T00:47:39.428Z,95828.00
2019-04-30T00:50:10.134Z,95824.00
2019-04-30T00:52:41.957Z,95827.00
2019-04-30T00:55:15.055Z,95829.00
2019-04-30T00:57:47.538Z,95823.00
2019-04-30T01:00:25.311Z,95826.00
2019-04-30T01:03:05.981Z,95829.00
2019-04-30T01:05:35.457Z,95826.00
2019-04-30T01:08:09.227Z,95818.00
2019-04-30T01:10:41.018Z,95832.00
2019-04-30T01:13:12.926Z,95838.00
2019-04-30T01:15:49.015Z,95834.00
2019-04-30T01:18:19.268Z,95834.00
2019-04-30T01:20:51.162Z,95832.00
2019-04-30T01:23:23.266Z,95820.00
2019-04-30T01:25:55.425Z,95826.00
2019-04-30T01:28:28.408Z,95815.00
2019-04-30T01:31:01.994Z,95818.00
2019-04-30T01:33:34.777Z,95813.00
2019-04-30T01:36:09.691Z,95822.00
2019-04-30T01:38:44.837Z,95805.00
2019-04-30T01:41:14.925Z,95810.00
2019-04-30T01:43:48.606Z,95808.00
2019-04-30T01:46:21.217Z,95804.00
2019-04-30T01:48:53.061Z,95804.00
2019-04-30T01:51:25.133Z,95803.00
2019-04-30T01:53:56.966Z,95800.00
2019-04-30T01:56:42.982Z,95800.00
2019-04-30T01:59:25.095Z,95806.00
2019-04-30T02:01:58.510Z,95806.00
2019-04-30T02:04:31.449Z,95801.00
2019-04-30T02:07:04.006Z,95796.00
2019-04-30T02:09:35.851Z,95797.00
2019-04-30T02:12:09.396Z,95791.00
2019-04-30T02:14:41.900Z,95795.00
2019-04-30T02:17:13.957Z,95790.00
2019-04-30T02:19:56.406Z,95792.00
2019-04-30T02:22:19.724Z,95794.00
2019-04-30T02:24:51.846Z,95793.00
2019-04-30T02:27:23.929Z,95790.00
2019-04-30T02:29:56.053Z,95793.00
2019-04-30T02:32:30.401Z,95787.00
2019-04-30T02:35:09.741Z,95785.00
2019-04-30T02:38:00.784Z,95787.00
2019-04-30T02:40:34.773Z,95786.00
2019-04-30T02:43:09.162Z,95782.00
2019-04-30T02:45:42.219Z,95786.00
2019-04-30T02:48:14.953Z,95795.00
2019-04-30T02:50:49.106Z,95795.00
2019-04-30T02:54:11.179Z,95790.00
2019-04-30T02:56:44.995Z,95797.00
2019-04-30T02:59:16.814Z,95784.00
2019-04-30T03:01:50.145Z,95789.00
2019-04-30T03:04:22.135Z,95786.00
2019-04-30T03:06:54.361Z,95786.00
2019-04-30T03:09:26.430Z,95781.00
2019-04-30T03:12:00.178Z,95778.00
2019-04-30T03:14:32.190Z,95781.00
2019-04-30T03:17:12.664Z,95773.00
2019-04-30T03:19:53.119Z,95770.00
2019-04-30T03:22:27.017Z,95760.00
2019-04-30T03:24:59.865Z,95764.00
2019-04-30T03:27:32.241Z,95765.00
2019-04-30T03:30:04.791Z,95764.00
2019-04-30T03:32:42.603Z,95764.00
2019-04-30T03:35:12.751Z,95763.00
2019-04-30T03:37:44.825Z,95762.00
2019-04-30T03:40:16.599Z,95759.00
2019-04-30T03:42:49.388Z,95767.00
2019-04-30T03:45:21.303Z,95761.00
2019-04-30T03:47:53.414Z,95766.00
2019-04-30T03:50:25.593Z,95761.00
2019-04-30T03:53:00.458Z,95752.00
2019-04-30T03:55:31.533Z,95756.00
2019-04-30T03:58:03.710Z,95766.00
2019-04-30T04:00:51.557Z,95764.00
2019-04-30T04:03:23.381Z,95770.00
2019-04-30T04:06:12.754Z,95776.00
2019-04-30T04:09:00.225Z,95769.00
2019-04-30T04:11:36.724Z,95774.00
2019-04-30T04:14:09.368Z,95766.00
2019-04-30T04:16:41.318Z,95767.00
2019-04-30T04:19:13.167Z,95771.00
2019-04-30T04:21:45.239Z,95771.00
2019-04-30T04:24:20.199Z,95766.00
2019-04-30T04:26:51.514Z,95775.00
2019-04-30T04:29:23.704Z,95775.00
2019-04-30T04:31:56.164Z,95775.00
2019-04-30T04:34:30.236Z,95780.00
2019-04-30T04:37:01.784Z,95779.00
2019-04-30T04:39:34.155Z,95782.00
2019-04-30T04:42:06.266Z,95794.00
2019-04-30T04:44:39.950Z,95790.00
2019-04-30T04:47:12.563Z,95791.00
2019-04-30T04:49:45.834Z,95791.00
2019-04-30T04:52:21.048Z,95800.00
2019-04-30T04:54:51.590Z,95799.00
2019-04-30T04:57:23.385Z,95801.00
2019-04-30T04:59:55.940Z,95793.00
2019-04-30T05:02:33.389Z,95792.00
2019-04-30T05:05:05.540Z,95799.00
2019-04-30T05:07:37.364Z,95799.00
2019-04-30T05:10:11.061Z,95803.00
2019-04-30T05:12:43.163Z,95798.00
2019-04-30T05:15:15.229Z,95804.00
2019-04-30T05:17:47.034Z,95803.00
2019-04-30T05:20:19.585Z,95806.00
2019-04-30T05:22:51.708Z,95801.00
2019-04-30T05:25:23.855Z,95799.00
2019-04-30T05:27:55.950Z,95798.00
2019-04-30T05:30:29.519Z,95801.00
2019-04-30T05:33:01.434Z,95800.00
2019-04-30T05:35:33.282Z,95793.00
2019-04-30T05:38:05.358Z,95796.00
2019-04-30T05:40:37.289Z,95791.00
2019-04-30T05:43:11.234Z,95789.00
2019-04-30T05:45:42.629Z,95799.00
2019-04-30T05:48:14.437Z,95797.00
2019-04-30T05:50:46.280Z,95791.00
2019-04-30T05:53:19.183Z,95794.00
2019-04-30T05:55:51.912Z,95799.00
2019-04-30T05:58:23.717Z,95799.00
2019-04-30T06:00:55.859Z,95794.00
2019-04-30T06:03:32.756Z,95795.00
2019-04-30T06:06:01.833Z,95783.00
2019-04-30T06:08:43.456Z,95788.00
2019-04-30T06:11:33.359Z,95796.00
2019-04-30T06:14:28.584Z,95794.00
2019-04-30T06:17:09.752Z,95796.00
2019-04-30T06:19:41.847Z,95801.00
2019-04-30T06:22:13.780Z,95806.00
2019-04-30T06:24:45.582Z,95803.00
2019-04-30T06:27:19.109Z,95807.00
2019-04-30T06:29:51.482Z,95819.00
2019-04-30T06:32:25.235Z,95823.00
2019-04-30T06:34:59.217Z,95827.00
2019-04-30T06:37:31.780Z,95830.00
2019-04-30T06:40:03.581Z,95833.00
2019-04-30T06:42:39.331Z,95828.00
2019-04-30T06:45:11.224Z,95831.00
2019-04-30T06:47:43.195Z,95840.00
2019-04-30T06:50:15.078Z,95841.00
2019-04-30T06:52:56.660Z,95845.00
2019-04-30T06:55:20.605Z,95857.00
2019-04-30T06:57:53.078Z,95853.00
2019-04-30T07:00:36.279Z,95853.00
2019-04-30T07:03:09.611Z,95855.00
2019-04-30T07:05:42.051Z,95858.00
2019-04-30T07:08:39.154Z,95850.00
2019-04-30T07:11:42.562Z,95850.00
2019-04-30T07:14:14.634Z,95847.00
2019-04-30T07:16:46.456Z,95858.00
2019-04-30T07:19:29.934Z,95868.00
2019-04-30T07:21:51.975Z,95864.00
2019-04-30T07:24:23.881Z,95870.00
2019-04-30T07:27:01.046Z,95857.00
2019-04-30T07:29:29.604Z,95870.00
2019-04-30T07:32:02.209Z,95868.00
2019-04-30T07:34:37.060Z,95866.00
2019-04-30T07:37:16.309Z,95864.00
2019-04-30T07:39:41.811Z,95870.00
2019-04-30T07:42:13.708Z,95869.00
2019-04-30T07:44:45.716Z,95878.00
2019-04-30T07:47:19.407Z,95872.00
2019-04-30T07:49:55.031Z,95870.00
2019-04-30T07:52:26.729Z,95872.00
2019-04-30T07:55:00.734Z,95873.00
2019-04-30T07:57:33.175Z,95878.00
2019-04-30T08:00:05.656Z,95877.00
2019-04-30T08:02:43.730Z,95880.00
2019-04-30T08:05:29.720Z,95881.00
2019-04-30T08:08:16.757Z,95883.00
2019-04-30T08:10:35.055Z,95881.00
2019-04-30T08:13:13.716Z,95882.00
2019-04-30T08:15:42.370Z,95882.00
2019-04-30T08:18:14.313Z,95884.00
2019-04-30T08:20:46.450Z,95876.00
2019-04-30T08:23:33.103Z,95877.00
2019-04-30T08:25:52.281Z,95885.00
2019-04-30T08:28:24.119Z,95882.00
2019-04-30T08:30:56.336Z,95890.00
2019-04-30T08:33:29.178Z,95888.00
2019-04-30T08:36:01.186Z,95895.00
2019-04-30T08:38:33.270Z,95894.00
2019-04-30T08:41:05.825Z,95893.00
2019-04-30T08:43:39.442Z,95894.00
2019-04-30T08:46:11.373Z,95895.00
2019-04-30T08:48:50.525Z,95884.00
2019-04-30T08:51:18.768Z,95889.00
2019-04-30T08:53:50.458Z,95891.00
2019-04-30T08:56:22.645Z,95887.00
2019-04-30T08:58:55.293Z,95890.00
2019-04-30T09:01:29.203Z,95888.00
2019-04-30T09:04:00.688Z,95893.00
2019-04-30T09:06:32.525Z,95895.00
2019-04-30T09:09:21.992Z,95898.00
2019-04-30T09:11:55.933Z,95902.00
2019-04-30T09:14:29.805Z,95906.00
2019-04-30T09:17:02.074Z,95916.00
2019-04-30T09:19:33.907Z,95913.00
2019-04-30T09:22:14.354Z,95908.00
2019-04-30T09:24:39.686Z,95903.00
2019-04-30T09:27:11.542Z,95905.00
2019-04-30T09:29:44.649Z,95914.00
2019-04-30T09:32:16.702Z,95914.00
2019-04-30T09:34:48.940Z,95916.00
2019-04-30T09:37:21.148Z,95920.00
2019-04-30T09:39:52.968Z,95918.00
2019-04-30T09:42:24.826Z,95921.00
2019-04-30T09:44:57.793Z,95916.00
2019-04-30T09:47:30.478Z,95918.00
2019-04-30T09:50:02.319Z,95913.00
2019-04-30T09:52:36.106Z,95917.00
2019-04-30T09:55:09.609Z,95916.00
2019-04-30T09:57:42.242Z,95917.00
2019-04-30T10:00:14.768Z,95909.00
2019-04-30T10:02:48.726Z,95911.00
2019-04-30T10:05:20.746Z,95908.00
2019-04-30T10:07:52.983Z,95902.00
2019-04-30T10:10:29.929Z,95905.00
2019-04-30T10:13:01.795Z,95913.00
2019-04-30T10:15:55.681Z,95911.00
2019-04-30T10:18:27.540Z,95900.00
2019-04-30T10:21:00.933Z,95900.00
2019-04-30T10:23:33.224Z,95908.00
2019-04-30T10:26:05.214Z,95898.00
2019-04-30T10:28:41.823Z,95906.00
2019-04-30T10:31:13.851Z,95902.00
2019-04-30T10:33:48.457Z,95893.00
2019-04-30T10:36:21.172Z,95900.00
2019-04-30T10:38:53.312Z,95886.00
2019-04-30T10:41:25.526Z,95894.00
2019-04-30T10:43:59.120Z,95884.00
2019-04-30T10:46:31.312Z,95886.00
2019-04-30T10:49:03.315Z,95889.00
2019-04-30T10:51:35.322Z,95878.00
2019-04-30T10:54:08.848Z,95876.00
2019-04-30T10:56:40.997Z,95882.00
2019-04-30T10:59:12.853Z,95880.00
2019-04-30T11:01:45.355Z,95868.00
2019-04-30T11:04:19.557Z,95869.00
2019-04-30T11:06:51.678Z,95869.00
2019-04-30T11:09:24.192Z,95867.00
2019-04-30T11:11:56.135Z,95871.00
2019-04-30T11:14:28.417Z,95869.00
2019-04-30T11:17:00.599Z,95856.00
2019-04-30T11:19:33.100Z,95857.00
2019-04-30T11:22:05.163Z,95861.00
2019-04-30T11:24:53.423Z,95851.00
2019-04-30T11:27:12.169Z,95848.00
2019-04-30T11:29:44.737Z,95848.00
2019-04-30T11:32:20.750Z,95848.00
2019-04-30T11:34:52.727Z,95859.00
2019-04-30T11:37:24.953Z,95851.00
2019-04-30T11:39:57.161Z,95854.00
2019-04-30T11:42:32.082Z,95843.00
2019-04-30T11:45:03.239Z,95850.00
2019-04-30T11:47:36.648Z,95844.00
2019-04-30T11:50:11.865Z,95851.00
2019-04-30T11:52:43.933Z,95840.00
2019-04-30T11:55:19.242Z,95842.00
2019-04-30T11:57:50.859Z,95835.00
2019-04-30T12:00:29.646Z,95836.00
2019-04-30T12:03:01.652Z,95843.00
2019-04-30T12:05:33.657Z,95842.00
2019-04-30T12:08:22.519Z,95849.00
2019-04-30T12:11:25.625Z,95855.00
2019-04-30T12:13:57.818Z,95854.00
2019-04-30T12:16:29.727Z,95847.00
2019-04-30T12:19:01.822Z,95804.00
2019-04-30T12:21:33.941Z,95850.00
2019-04-30T12:24:05.983Z,95835.00
2019-04-30T12:26:38.901Z,95834.00
2019-04-30T12:29:11.227Z,95840.00
2019-04-30T12:31:43.910Z,95848.00
2019-04-30T12:34:15.715Z,95844.00
2019-04-30T12:36:49.621Z,95844.00
2019-04-30T12:39:21.064Z,95846.00
2019-04-30T12:41:53.190Z,95837.00
2019-04-30T12:44:25.278Z,95835.00
2019-04-30T12:46:58.622Z,95844.00
2019-04-30T12:49:48.430Z,95838.00
2019-04-30T12:52:26.062Z,95845.00
2019-04-30T12:55:26.114Z,95845.00
2019-04-30T12:57:59.602Z,95849.00
2019-04-30T13:00:32.156Z,95840.00
2019-04-30T13:03:04.786Z,95829.00
2019-04-30T13:05:37.150Z,95821.00
2019-04-30T13:08:10.136Z,95819.00
2019-04-30T13:10:42.742Z,95814.00
2019-04-30T13:13:15.730Z,95820.00
2019-04-30T13:15:47.789Z,95830.00
2019-04-30T13:18:20.301Z,95828.00
2019-04-30T13:20:52.495Z,95836.00
2019-04-30T13:23:24.966Z,95843.00
2019-04-30T13:25:58.492Z,95823.00
2019-04-30T13:28:32.745Z,95823.00
2019-04-30T13:31:04.548Z,95809.00
2019-04-30T13:33:42.292Z,95812.00
2019-04-30T13:36:14.939Z,95803.00
2019-04-30T13:39:01.695Z,95811.00
2019-04-30T13:42:01.793Z,95821.00
2019-04-30T13:44:39.440Z,95822.00
2019-04-30T13:47:11.285Z,95821.00
2019-04-30T13:49:43.144Z,95809.00
2019-04-30T13:52:15.075Z,95806.00
2019-04-30T13:54:47.568Z,95802.00
2019-04-30T13:57:20.059Z,95806.00
2019-04-30T13:59:52.290Z,95807.00
2019-04-30T14:02:24.109Z,95813.00
2019-04-30T14:05:04.493Z,95813.00
2019-04-30T14:07:59.838Z,95813.00
2019-04-30T14:10:36.658Z,95812.00
2019-04-30T14:13:09.673Z,95813.00
2019-04-30T14:15:41.742Z,95810.00
2019-04-30T14:18:27.388Z,95812.00
2019-04-30T14:20:48.505Z,95817.00
2019-04-30T14:23:20.327Z,95816.00
2019-04-30T14:25:56.656Z,95819.00
2019-04-30T14:28:26.377Z,95826.00
2019-04-30T14:30:58.489Z,95824.00
2019-04-30T14:33:30.308Z,95827.00
2019-04-30T14:36:15.787Z,95821.00
2019-04-30T14:38:48.890Z,95814.00
2019-04-30T14:41:22.281Z,95804.00
2019-04-30T14:44:00.755Z,95804.00
2019-04-30T14:46:55.603Z,95806.00
2019-04-30T14:50:01.885Z,95811.00
2019-04-30T14:52:27.108Z,95818.00
2019-04-30T14:55:30.251Z,95823.00
2019-04-30T14:58:20.420Z,95824.00
2019-04-30T15:01:02.071Z,95824.00
2019-04-30T15:03:34.032Z,95820.00
2019-04-30T15:06:06.377Z,95826.00
2019-04-30T15:08:39.363Z,95825.00
2019-04-30T15:11:11.501Z,95828.00
2019-04-30T15:13:44.128Z,95827.00
2019-04-30T15:16:16.227Z,95839.00
2019-04-30T15:18:48.749Z,95831.00
2019-04-30T15:21:20.861Z,95831.00
2019-04-30T15:24:19.274Z,95828.00
2019-04-30T15:26:57.754Z,95832.00
2019-04-30T15:29:24.891Z,95829.00
2019-04-30T15:31:59.122Z,95823.00
2019-04-30T15:34:30.542Z,95821.00
2019-04-30T15:37:02.727Z,95813.00
2019-04-30T15:39:39.266Z,95819.00
2019-04-30T15:42:12.414Z,95813.00
2019-04-30T15:44:45.837Z,95815.00
2019-04-30T15:47:19.070Z,95824.00
2019-04-30T15:49:51.079Z,95823.00
2019-04-30T15:52:23.249Z,95824.00
2019-04-30T15:54:55.094Z,95825.00
2019-04-30T15:57:26.903Z,95830.00
2019-04-30T15:59:59.475Z,95823.00
2019-04-30T16:02:56.948Z,95831.00
2019-04-30T16:05:35.064Z,95830.00
2019-04-30T16:08:41.793Z,95828.00
2019-04-30T16:11:41.945Z,95831.00
2019-04-30T16:14:26.978Z,95833.00
2019-04-30T16:17:06.591Z,95819.00
2019-04-30T16:19:39.108Z,95823.00
2019-04-30T16:22:14.777Z,95822.00
2019-04-30T16:24:46.643Z,95818.00
2019-04-30T16:27:19.927Z,95811.00
2019-04-30T16:29:51.868Z,95812.00
2019-04-30T16:32:24.321Z,95805.00
2019-04-30T16:34:56.415Z,95807.00
2019-04-30T16:37:28.813Z,95803.00
2019-04-30T16:40:00.645Z,95796.00
2019-04-30T16:42:32.874Z,95799.00
2019-04-30T16:45:04.936Z,95797.00
2019-04-30T16:47:37.056Z,95784.00
2019-04-30T16:50:09.766Z,95780.00
2019-04-30T16:52:41.923Z,95788.00
2019-04-30T16:55:14.412Z,95783.00
2019-04-30T16:57:46.395Z,95791.00
2019-04-30T17:00:20.116Z,95791.00
2019-04-30T17:02:57.209Z,95791.00
2019-04-30T17:05:39.470Z,95789.00
2019-04-30T17:08:29.038Z,95790.00
2019-04-30T17:11:09.210Z,95789.00
2019-04-30T17:13:45.241Z,95799.00
2019-04-30T17:16:19.652Z,95807.00
2019-04-30T17:18:51.944Z,95804.00
2019-04-30T17:21:24.021Z,95807.00
2019-04-30T17:23:55.869Z,95803.00
2019-04-30T17:26:27.804Z,95806.00
2019-04-30T17:29:00.103Z,95813.00
2019-04-30T17:31:31.927Z,95813.00
2019-04-30T17:34:04.166Z,95808.00
2019-04-30T17:36:36.260Z,95813.00
2019-04-30T17:39:13.075Z,95812.00
2019-04-30T17:41:44.904Z,95822.00
2019-04-30T17:44:18.668Z,95817.00
2019-04-30T17:46:50.656Z,95822.00
2019-04-30T17:49:22.534Z,95815.00
2019-04-30T17:51:54.344Z,95825.00
2019-04-30T17:54:26.290Z,95823.00
2019-04-30T17:56:58.109Z,95826.00
2019-04-30T17:59:30.240Z,95834.00
2019-04-30T18:02:04.040Z,95828.00
2019-04-30T18:04:35.893Z,95829.00
2019-04-30T18:07:09.949Z,95829.00
2019-04-30T18:09:42.177Z,95847.00
2019-04-30T18:12:13.989Z,95831.00
2019-04-30T18:14:45.846Z,95827.00
2019-04-30T18:17:17.712Z,95833.00
2019-04-30T18:20:15.059Z,95829.00
2019-04-30T18:23:04.562Z,95830.00
2019-04-30T18:25:44.334Z,95825.00
2019-04-30T18:28:16.514Z,95838.00
2019-04-30T18:30:49.144Z,95833.00
2019-04-30T18:33:21.327Z,95837.00
2019-04-30T18:35:53.493Z,95839.00
2019-04-30T18:38:25.319Z,95839.00
2019-04-30T18:40:59.396Z,95845.00
2019-04-30T18:43:31.326Z,95854.00
2019-04-30T18:46:04.046Z,95847.00
2019-04-30T18:48:35.871Z,95845.00
2019-04-30T18:51:23.677Z,95850.00
2019-04-30T18:53:41.562Z,95850.00
2019-04-30T18:56:14.867Z,95848.00
2019-04-30T18:58:48.688Z,95849.00
2019-04-30T19:01:20.753Z,95851.00
2019-04-30T19:03:52.840Z,95855.00
2019-04-30T19:06:26.697Z,95856.00
2019-04-30T19:09:32.915Z,95869.00
2019-04-30T19:12:35.724Z,95869.00
2019-04-30T19:15:48.607Z,95872.00
2019-04-30T19:18:40.624Z,95868.00
2019-04-30T19:21:12.575Z,95874.00
2019-04-30T19:23:44.710Z,95880.00
2019-04-30T19:26:16.541Z,95878.00
2019-04-30T19:28:49.325Z,95879.00
2019-04-30T19:31:21.485Z,95879.00
2019-04-30T19:33:53.346Z,95885.00
2019-04-30T19:36:35.074Z,95888.00
2019-04-30T19:38:59.769Z,95898.00
2019-04-30T19:41:32.159Z,95894.00
2019-04-30T19:44:04.291Z,95893.00
2019-04-30T19:46:36.267Z,95889.00
2019-04-30T19:49:09.827Z,95892.00
2019-04-30T19:51:41.830Z,95896.00
2019-04-30T19:54:13.690Z,95895.00
2019-04-30T19:56:45.875Z,95894.00
2019-04-30T19:59:19.348Z,95894.00
2019-04-30T20:01:51.553Z,95904.00
2019-04-30T20:04:33.093Z,95896.00
2019-04-30T20:06:59.144Z,95898.00
2019-04-30T20:09:31.704Z,95895.00
2019-04-30T20:12:03.517Z,95897.00
2019-04-30T20:14:36.431Z,95907.00
2019-04-30T20:17:08.926Z,95904.00
2019-04-30T20:19:40.750Z,95899.00
2019-04-30T20:22:12.702Z,95900.00
2019-04-30T20:24:45.467Z,95899.00
2019-04-30T20:27:19.019Z,95895.00
2019-04-30T20:29:51.781Z,95900.00
2019-04-30T20:32:35.391Z,95909.00
2019-04-30T20:34:59.674Z,95896.00
2019-04-30T20:37:31.280Z,95904.00
2019-04-30T20:40:12.459Z,95903.00
2019-04-30T20:42:44.265Z,95903.00
2019-04-30T20:45:16.505Z,95889.00
2019-04-30T20:47:49.624Z,95893.00
2019-04-30T20:50:21.954Z,95899.00
2019-04-30T20:52:54.454Z,95891.00
2019-04-30T20:55:26.779Z,95890.00
2019-04-30T20:57:59.467Z,95889.00
2019-04-30T21:00:32.057Z,95892.00
2019-04-30T21:03:04.608Z,95887.00
2019-04-30T21:11:12.025Z,95873.00
2019-04-30T21:13:44.169Z,95878.00
2019-04-30T21:16:16.877Z,95884.00
2019-04-30T21:18:49.342Z,95873.00
2019-04-30T21:21:21.329Z,95877.00
2019-04-30T21:23:53.466Z,95879.00
2019-04-30T21:26:26.034Z,95882.00
2019-04-30T21:29:10.415Z,95885.00
2019-04-30T21:31:50.803Z,95882.00
2019-04-30T21:34:41.617Z,95879.00
2019-04-30T21:37:13.845Z,95884.00
2019-04-30T21:39:45.704Z,95882.00
2019-04-30T21:42:18.202Z,95883.00
2019-04-30T21:44:50.712Z,95883.00
2019-04-30T21:47:23.048Z,95872.00
2019-04-30T21:49:55.256Z,95880.00
2019-04-30T21:52:27.489Z,95877.00
2019-04-30T21:54:59.666Z,95872.00
2019-04-30T21:57:31.823Z,95870.00
2019-04-30T22:00:04.533Z,95876.00
2019-04-30T22:02:38.371Z,95861.00
2019-04-30T22:05:10.662Z,95869.00
2019-04-30T22:07:43.801Z,95869.00
2019-04-30T22:10:19.011Z,95867.00
2019-04-30T22:12:50.969Z,95873.00
2019-04-30T22:15:23.125Z,95874.00
2019-04-30T22:17:55.188Z,95870.00
2019-04-30T22:20:29.067Z,95876.00
2019-04-30T22:23:00.593Z,95874.00
2019-04-30T22:25:32.409Z,95870.00
2019-04-30T22:28:04.270Z,95872.00
2019-04-30T22:30:36.362Z,95876.00
2019-04-30T22:33:10.828Z,95870.00
2019-04-30T22:35:49.349Z,95881.00
2019-04-30T22:38:25.351Z,95875.00
2019-04-30T22:40:58.849Z,95882.00
2019-04-30T22:43:31.149Z,95875.00
2019-04-30T22:46:09.747Z,95873.00
2019-04-30T22:48:41.793Z,95873.00
2019-04-30T22:51:13.622Z,95873.00
2019-04-30T22:53:45.935Z,95866.00
2019-04-30T22:56:17.796Z,95870.00
2019-04-30T22:58:49.695Z,95860.00
2019-04-30T23:01:50.446Z,95865.00
2019-04-30T23:04:47.344Z,95873.00
2019-04-30T23:07:19.156Z,95863.00
2019-04-30T23:09:51.285Z,95861.00
2019-04-30T23:12:23.101Z,95857.00
2019-04-30T23:14:55.041Z,95864.00
2019-04-30T23:17:27.125Z,95859.00
2019-04-30T23:19:59.790Z,95861.00
2019-04-30T23:22:31.600Z,95856.00
2019-04-30T23:25:03.822Z,95852.00
2019-04-30T23:27:35.629Z,95853.00
2019-04-30T23:30:08.186Z,95851.00
2019-04-30T23:32:40.559Z,95853.00
2019-04-30T23:35:12.510Z,95844.00
2019-04-30T23:37:44.411Z,95842.00
2019-04-30T23:40:46.741Z,95846.00
2019-04-30T23:43:19.083Z,95841.00
2019-04-30T23:45:51.100Z,95833.00
2019-04-30T23:48:22.898Z,95832.00
2019-04-30T23:50:54.759Z,95829.00
2019-04-30T23:53:26.834Z,95832.00
2019-04-30T23:55:59.006Z,95830.00
2019-04-30T23:58:30.842Z,95825.00
